createdAt,value
2018-09-14T06:56:25.785Z,14.60
2018-09-14T06:58:54.015Z,14.20
2018-09-14T07:01:22.220Z,13.70
2018-09-14T07:03:50.429Z,14.00
2018-09-14T07:06:18.648Z,14.40
2018-09-14T07:08:46.895Z,14.80
2018-09-14T07:11:36.545Z,15.50
2018-09-14T07:14:06.171Z,15.90
2018-09-14T07:16:34.492Z,16.20
2018-09-14T07:19:02.686Z,16.40
2018-09-14T07:21:30.931Z,16.40
2018-09-14T07:23:59.156Z,16.80
2018-09-14T07:26:27.483Z,17.10
2018-09-14T07:28:55.730Z,17.20
2018-09-14T07:31:29.987Z,16.30
2018-09-14T07:33:58.141Z,17.10
2018-09-14T07:38:54.376Z,20.20
2018-09-14T07:41:22.626Z,22.70
2018-09-14T07:46:18.894Z,25.90
2018-09-14T07:48:47.193Z,30.30
2018-09-14T07:51:15.471Z,30.50
2018-09-14T07:53:43.756Z,28.90
2018-09-14T07:56:11.996Z,28.50
2018-09-14T07:58:40.262Z,29.80
2018-09-14T08:01:08.585Z,31.30
2018-09-14T08:03:36.717Z,31.70
2018-09-14T08:06:04.892Z,32.10
2018-09-14T08:08:33.060Z,33.40
2018-09-14T08:11:01.264Z,33.80
2018-09-14T08:13:30.689Z,33.50
2018-09-14T08:15:58.937Z,31.70
2018-09-14T08:18:27.195Z,32.70
2018-09-14T08:20:55.431Z,31.60
2018-09-14T08:23:23.625Z,32.50
2018-09-14T08:25:51.909Z,34.80
2018-09-14T08:28:20.111Z,35.60
2018-09-14T08:30:48.377Z,34.90
2018-09-14T08:33:16.658Z,36.50
2018-09-14T08:35:44.868Z,36.50
2018-09-14T08:38:13.140Z,33.40
2018-09-14T08:40:41.420Z,30.50
2018-09-14T08:43:09.727Z,28.10
2018-09-14T08:45:37.941Z,26.30
2018-09-14T08:48:06.165Z,25.70
2018-09-14T08:50:34.277Z,24.30
2018-09-14T08:55:30.432Z,23.60
2018-09-14T08:57:58.675Z,23.50
2018-09-14T09:00:26.848Z,22.90
2018-09-14T09:02:55.345Z,21.90
2018-09-14T09:05:24.488Z,23.00
2018-09-14T09:07:52.724Z,26.20
2018-09-14T09:10:20.981Z,31.50
2018-09-14T09:12:49.484Z,35.00
2018-09-14T09:15:17.755Z,37.30
2018-09-14T09:17:46.073Z,38.10
2018-09-14T09:20:14.238Z,39.30
2018-09-14T09:22:42.472Z,39.30
2018-09-14T09:27:38.664Z,40.30
2018-09-14T09:30:06.851Z,41.30
2018-09-14T09:32:35.032Z,43.40
2018-09-14T09:35:03.222Z,43.90
2018-09-14T09:37:31.420Z,42.50
2018-09-14T09:39:59.596Z,43.50
2018-09-14T09:42:27.769Z,42.20
2018-09-14T09:44:56.369Z,43.10
2018-09-14T09:47:24.553Z,43.40
2018-09-14T09:49:52.736Z,43.30
2018-09-14T09:52:21.005Z,43.60
2018-09-14T09:54:49.151Z,39.80
2018-09-14T09:57:17.328Z,40.80
2018-09-14T09:59:45.524Z,41.00
2018-09-14T10:02:20.327Z,42.10
2018-09-14T10:04:53.890Z,38.50
2018-09-14T10:07:25.414Z,38.20
2018-09-14T10:09:53.772Z,34.00
2018-09-14T10:12:22.176Z,31.70
2018-09-14T10:14:50.420Z,29.50
2018-09-14T10:17:18.877Z,27.60
2018-09-14T10:19:47.135Z,25.50
2018-09-14T10:22:15.825Z,25.10
2018-09-14T10:24:44.169Z,24.50
2018-09-14T10:27:12.454Z,23.90
2018-09-14T10:29:40.795Z,23.80
2018-09-14T10:32:09.205Z,23.10
2018-09-14T10:34:37.393Z,23.70
2018-09-14T10:37:05.662Z,24.00
2018-09-14T10:39:33.906Z,23.20
2018-09-14T10:42:02.385Z,23.40
2018-09-14T10:44:31.000Z,26.70
2018-09-14T10:46:59.536Z,29.50
2018-09-14T10:49:27.741Z,30.90
2018-09-14T10:51:55.970Z,31.50
2018-09-14T10:54:24.200Z,32.60
2018-09-14T10:56:52.470Z,32.10
2018-09-14T10:59:20.660Z,31.10
2018-09-14T11:01:48.903Z,30.40
2018-09-14T11:04:17.451Z,30.00
2018-09-14T11:06:45.778Z,29.70
2018-09-14T11:09:14.121Z,29.60
2018-09-14T11:11:42.544Z,28.90
2018-09-14T11:14:11.885Z,27.90
2018-09-14T11:16:40.121Z,28.00
2018-09-14T11:19:08.400Z,28.40
2018-09-14T11:21:36.577Z,27.90
2018-09-14T11:24:04.923Z,28.20
2018-09-14T11:26:33.141Z,28.50
2018-09-14T11:29:01.420Z,28.60
2018-09-14T11:31:29.622Z,28.20
2018-09-14T11:33:58.519Z,27.50
2018-09-14T11:36:27.212Z,26.30
2018-09-14T11:38:55.817Z,26.10
2018-09-14T11:41:24.073Z,26.20
2018-09-14T11:43:53.318Z,26.60
2018-09-14T11:46:21.624Z,27.10
2018-09-14T11:48:50.577Z,26.90
2018-09-14T11:51:18.902Z,27.10
2018-09-14T11:53:47.129Z,27.00
2018-09-14T11:56:15.776Z,26.60
2018-09-14T11:58:44.005Z,26.20
2018-09-14T12:01:12.275Z,25.60
2018-09-14T12:03:40.520Z,25.10
2018-09-14T12:06:08.796Z,25.10
2018-09-14T12:08:37.021Z,24.70
2018-09-14T12:11:05.258Z,24.90
2018-09-14T12:13:33.526Z,25.00
2018-09-14T12:16:01.714Z,25.10
2018-09-14T12:18:30.003Z,25.40
2018-09-14T12:20:58.287Z,25.70
2018-09-14T12:23:26.551Z,25.80
2018-09-14T12:25:54.797Z,26.20
2018-09-14T12:28:23.234Z,26.60
2018-09-14T12:30:51.768Z,26.30
2018-09-14T12:33:19.994Z,26.20
2018-09-14T12:35:48.325Z,26.10
2018-09-14T12:38:16.498Z,25.80
2018-09-14T12:40:44.853Z,26.20
2018-09-14T12:43:13.128Z,26.20
2018-09-14T12:45:41.712Z,26.40
2018-09-14T12:48:09.924Z,26.20
2018-09-14T12:50:39.037Z,26.00
2018-09-14T12:53:07.532Z,25.80
2018-09-14T12:55:35.756Z,25.80
2018-09-14T12:58:03.988Z,25.60
2018-09-14T13:00:32.217Z,25.50
2018-09-14T13:03:00.435Z,25.90
2018-09-14T13:05:29.509Z,26.20
2018-09-14T13:07:57.756Z,26.40
2018-09-14T13:12:53.123Z,26.30
2018-09-14T13:15:22.576Z,25.80
2018-09-14T13:17:51.096Z,25.70
2018-09-14T13:20:20.595Z,26.00
2018-09-14T13:22:48.871Z,25.90
2018-09-14T13:25:17.134Z,25.50
2018-09-14T13:27:45.374Z,25.30
2018-09-14T13:30:13.607Z,25.10
2018-09-14T13:32:43.309Z,24.80
2018-09-14T13:35:11.529Z,25.00
2018-09-14T13:37:39.795Z,24.60
2018-09-14T13:40:08.083Z,24.70
2018-09-14T13:42:36.302Z,24.40
2018-09-14T13:45:04.810Z,24.50
2018-09-14T13:47:33.007Z,24.80
2018-09-14T13:50:01.239Z,25.10
2018-09-14T13:52:29.458Z,24.90
2018-09-14T13:54:57.679Z,24.70
2018-09-14T13:57:25.971Z,24.20
2018-09-14T13:59:54.638Z,24.00
2018-09-14T14:02:23.232Z,23.90
2018-09-14T14:04:52.451Z,23.80
2018-09-14T14:07:20.704Z,23.80
2018-09-14T14:09:48.988Z,23.50
2018-09-14T14:12:17.174Z,23.60
2018-09-14T14:14:45.900Z,23.70
2018-09-14T14:17:14.173Z,23.70
2018-09-14T14:19:42.421Z,24.20
2018-09-14T14:22:10.748Z,24.30
2018-09-14T14:24:38.945Z,24.30
2018-09-14T14:27:07.153Z,24.40
2018-09-14T14:29:35.379Z,24.30
2018-09-14T14:32:03.581Z,24.10
2018-09-14T14:34:31.847Z,24.10
2018-09-14T14:37:00.098Z,24.20
2018-09-14T14:39:28.451Z,24.10
2018-09-14T14:41:56.733Z,24.10
2018-09-14T14:44:25.001Z,24.10
2018-09-14T14:46:53.641Z,24.20
2018-09-14T14:49:22.046Z,23.90
2018-09-14T14:51:50.286Z,24.00
2018-09-14T14:54:18.632Z,24.00
2018-09-14T14:56:46.832Z,24.00
2018-09-14T14:59:15.083Z,23.80
2018-09-14T15:01:43.388Z,23.60
2018-09-14T15:04:11.613Z,23.60
2018-09-14T15:06:39.829Z,23.70
2018-09-14T15:09:08.977Z,23.60
2018-09-14T15:11:37.532Z,23.50
2018-09-14T15:14:05.887Z,23.40
2018-09-14T15:16:34.129Z,23.50
2018-09-14T15:19:02.962Z,23.50
2018-09-14T15:21:31.212Z,23.60
2018-09-14T15:23:59.449Z,23.50
2018-09-14T15:26:27.681Z,23.50
2018-09-14T15:28:55.893Z,23.40
2018-09-14T15:31:24.125Z,23.10
2018-09-14T15:33:52.352Z,23.20
2018-09-14T15:36:20.556Z,23.40
2018-09-14T15:38:48.855Z,23.40
2018-09-14T15:41:17.124Z,23.50
2018-09-14T15:43:45.517Z,23.30
2018-09-14T15:46:13.690Z,23.10
2018-09-14T15:48:41.940Z,23.00
2018-09-14T15:51:10.088Z,22.80
2018-09-14T15:53:38.246Z,22.70
2018-09-14T15:56:06.427Z,22.70
2018-09-14T15:58:34.584Z,22.70
2018-09-14T16:04:00.288Z,22.50
2018-09-14T16:06:28.440Z,22.50
2018-09-14T16:08:56.642Z,22.20
2018-09-14T16:11:24.802Z,22.30
2018-09-14T16:13:53.021Z,22.20
2018-09-14T16:16:21.180Z,22.20
2018-09-14T16:18:49.502Z,22.10
2018-09-14T16:21:17.610Z,22.00
2018-09-14T16:23:45.761Z,21.70
2018-09-14T16:26:13.909Z,21.50
2018-09-14T16:28:42.066Z,21.40
2018-09-14T16:31:10.224Z,21.20
2018-09-14T16:33:38.406Z,21.10
2018-09-14T16:36:06.624Z,21.10
2018-09-14T16:38:34.784Z,21.20
2018-09-14T16:41:02.949Z,21.10
2018-09-14T16:43:31.138Z,20.90
2018-09-14T16:45:59.285Z,20.80
2018-09-14T16:48:27.725Z,20.70
2018-09-14T16:50:55.898Z,20.60
2018-09-14T16:53:24.061Z,20.50
2018-09-14T16:55:52.324Z,20.40
2018-09-14T16:58:20.529Z,20.30
2018-09-14T17:00:48.670Z,20.20
2018-09-14T17:03:16.817Z,20.20
2018-09-14T17:05:44.973Z,20.00
2018-09-14T17:08:13.150Z,20.00
2018-09-14T17:10:41.294Z,20.00
2018-09-14T17:13:09.456Z,20.00
2018-09-14T17:15:37.723Z,19.90
2018-09-14T17:18:05.881Z,19.90
2018-09-14T17:20:34.046Z,19.70
2018-09-14T17:23:02.178Z,19.60
2018-09-14T17:25:30.535Z,19.50
2018-09-14T17:27:58.711Z,19.40
2018-09-14T17:30:26.862Z,19.50
2018-09-14T17:32:55.125Z,19.30
2018-09-14T17:35:23.439Z,19.20
2018-09-14T17:37:51.688Z,19.10
2018-09-14T17:40:19.864Z,19.10
2018-09-14T17:42:48.059Z,19.00
2018-09-14T17:45:16.239Z,18.90
2018-09-14T17:47:44.406Z,18.80
2018-09-14T17:50:14.764Z,18.70
2018-09-14T17:52:44.113Z,18.60
2018-09-14T17:55:12.413Z,18.50
2018-09-14T17:57:40.631Z,18.40
2018-09-14T18:00:09.155Z,18.30
2018-09-14T18:02:37.352Z,18.30
2018-09-14T18:05:05.646Z,18.30
2018-09-14T18:07:34.247Z,18.20
2018-09-14T18:10:02.460Z,18.10
2018-09-14T18:12:31.588Z,18.00
2018-09-14T18:14:59.835Z,18.00
2018-09-14T18:17:29.590Z,17.80
2018-09-14T18:19:57.818Z,17.60
2018-09-14T18:22:26.050Z,17.60
2018-09-14T18:24:54.268Z,17.50
2018-09-14T18:27:22.556Z,17.40
2018-09-14T18:29:50.777Z,17.20
2018-09-14T18:32:19.030Z,17.00
2018-09-14T18:34:47.358Z,16.90
2018-09-14T18:37:15.585Z,16.90
2018-09-14T18:39:43.878Z,16.90
2018-09-14T18:42:12.271Z,16.90
2018-09-14T18:44:40.867Z,16.90
2018-09-14T18:47:09.087Z,16.90
2018-09-14T18:49:37.413Z,16.90
2018-09-14T18:52:05.857Z,16.90
2018-09-14T18:54:34.191Z,16.80
2018-09-14T18:57:02.497Z,16.60
2018-09-14T18:59:30.853Z,16.60
2018-09-14T19:01:59.370Z,16.60
2018-09-14T19:04:27.670Z,16.60
2018-09-14T19:06:55.962Z,16.50
2018-09-14T19:09:24.396Z,16.50
2018-09-14T19:11:52.675Z,16.50
2018-09-14T19:14:20.848Z,16.40
2018-09-14T19:16:51.006Z,16.30
2018-09-14T19:19:19.293Z,16.30
2018-09-14T19:21:48.233Z,16.30
2018-09-14T19:24:16.551Z,16.30
2018-09-14T19:26:44.909Z,16.30
2018-09-14T19:29:13.200Z,16.40
2018-09-14T19:31:42.635Z,16.60
2018-09-14T19:34:10.901Z,16.70
2018-09-14T19:36:39.328Z,16.80
2018-09-14T19:39:10.297Z,16.90
2018-09-14T19:41:39.614Z,16.90
2018-09-14T19:44:07.849Z,16.90
2018-09-14T19:46:36.226Z,16.90
2018-09-14T19:49:04.625Z,16.90
2018-09-14T19:51:32.905Z,16.90
2018-09-14T19:54:01.179Z,16.80
2018-09-14T19:56:29.563Z,16.80
2018-09-14T19:58:57.948Z,16.80
2018-09-14T20:01:26.183Z,16.80
2018-09-14T20:03:54.449Z,16.80
2018-09-14T20:06:22.734Z,16.70
2018-09-14T20:08:51.033Z,16.70
2018-09-14T20:11:19.292Z,16.70
2018-09-14T20:13:47.582Z,16.70
2018-09-14T20:16:15.809Z,16.60
2018-09-14T20:18:44.219Z,16.60
2018-09-14T20:21:12.469Z,16.60
2018-09-14T20:23:41.093Z,16.50
2018-09-14T20:26:09.389Z,16.40
2018-09-14T20:28:37.659Z,16.50
2018-09-14T20:31:06.007Z,16.50
2018-09-14T20:33:34.760Z,16.50
2018-09-14T20:36:03.006Z,16.40
2018-09-14T20:38:31.260Z,16.40
2018-09-14T20:40:59.532Z,16.40
2018-09-14T20:43:27.787Z,16.40
2018-09-14T20:45:56.194Z,16.30
2018-09-14T20:48:24.468Z,16.30
2018-09-14T20:50:54.285Z,16.30
2018-09-14T20:53:22.539Z,16.30
2018-09-14T20:55:51.861Z,16.30
2018-09-14T20:58:20.207Z,16.30
2018-09-14T21:00:48.514Z,16.20
2018-09-14T21:03:16.840Z,16.20
2018-09-14T21:05:45.070Z,16.10
2018-09-14T21:08:13.344Z,16.00
2018-09-14T21:10:41.576Z,16.00
2018-09-14T21:13:09.826Z,16.10
2018-09-14T21:15:38.073Z,16.20
2018-09-14T21:18:06.315Z,16.30
2018-09-14T21:20:34.547Z,16.30
2018-09-14T21:23:02.830Z,16.30
2018-09-14T21:25:31.080Z,16.40
2018-09-14T21:27:59.373Z,16.40
2018-09-14T21:30:27.635Z,16.50
2018-09-14T21:32:56.314Z,16.40
2018-09-14T21:35:24.593Z,16.50
2018-09-14T21:37:53.561Z,16.50
2018-09-14T21:40:21.894Z,16.50
2018-09-14T21:42:50.132Z,16.50
2018-09-14T21:45:18.423Z,16.50
2018-09-14T21:47:46.719Z,16.50
2018-09-14T21:50:14.980Z,16.50
2018-09-14T21:52:43.247Z,16.50
2018-09-14T21:55:11.536Z,16.50
2018-09-14T21:57:39.871Z,16.40
2018-09-14T22:00:14.421Z,16.40
2018-09-14T22:02:42.878Z,16.40
2018-09-14T22:05:11.348Z,16.40
2018-09-14T22:07:39.592Z,16.40
2018-09-14T22:10:08.053Z,16.40
2018-09-14T22:12:36.593Z,16.40
2018-09-14T22:15:04.851Z,16.40
2018-09-14T22:17:33.220Z,16.40
2018-09-14T22:20:01.472Z,16.40
2018-09-14T22:22:29.730Z,16.40
2018-09-14T22:24:59.425Z,16.40
2018-09-14T22:27:28.082Z,16.40
2018-09-14T22:29:57.319Z,16.40
2018-09-14T22:32:25.602Z,16.40
2018-09-14T22:34:53.871Z,16.40
2018-09-14T22:37:22.162Z,16.30
2018-09-14T22:39:50.520Z,16.40
2018-09-14T22:42:18.881Z,16.30
2018-09-14T22:44:47.127Z,16.30
2018-09-14T22:47:15.401Z,16.30
2018-09-14T22:49:43.626Z,16.30
2018-09-14T22:52:11.882Z,16.30
2018-09-14T22:54:40.210Z,16.30
2018-09-14T22:57:08.438Z,16.30
2018-09-14T22:59:36.661Z,16.30
2018-09-14T23:02:04.930Z,16.10
2018-09-14T23:04:33.183Z,16.00
2018-09-14T23:07:01.905Z,15.90
2018-09-14T23:09:30.486Z,15.80
2018-09-14T23:11:58.766Z,15.70
2018-09-14T23:14:27.024Z,15.60
2018-09-14T23:16:55.311Z,15.50
2018-09-14T23:19:23.572Z,15.40
2018-09-14T23:21:51.900Z,15.40
2018-09-14T23:24:20.119Z,15.30
2018-09-14T23:26:48.385Z,15.30
2018-09-14T23:29:16.633Z,15.30
2018-09-14T23:31:45.146Z,15.30
2018-09-14T23:34:13.435Z,15.20
2018-09-14T23:36:41.700Z,15.10
2018-09-14T23:39:11.492Z,15.00
2018-09-14T23:41:39.845Z,15.10
2018-09-14T23:44:08.183Z,15.00
2018-09-14T23:46:36.440Z,14.90
2018-09-14T23:49:04.782Z,14.90
2018-09-14T23:51:33.005Z,14.90
2018-09-14T23:54:01.292Z,14.80
2018-09-14T23:56:29.569Z,14.80
2018-09-14T23:58:57.861Z,14.70
